EDT,Max TemperatureF,Mean TemperatureF,Min TemperatureF,Max Dew PointF,MeanDew PointF,Min DewpointF,Max Humidity, Mean Humidity, Min Humidity, Max Sea Level PressureIn, Mean Sea Level PressureIn, Min Sea Level PressureIn, Max VisibilityMiles, Mean VisibilityMiles, Min VisibilityMiles, Max Wind SpeedMPH, Mean Wind SpeedMPH, Max Gust SpeedMPH,PrecipitationIn, CloudCover, Events, WindDirDegrees
2012-9-1,84,76,69,72,69,66,100,81,58,30.30,30.25,30.18,10,10,10,12,5,,0.00,2,Rain,209
2012-9-2,82,75,68,70,69,66,100,86,65,30.18,30.11,30.04,10,10,10,23,7,30,0.06,5,Rain-Thunderstorm,200
2012-9-3,78,73,68,72,68,66,100,92,69,30.08,30.04,30.02,10,10,10,17,9,23,0.06,6,Rain,182
2012-9-4,80,74,68,72,69,66,100,88,69,30.05,30.02,29.98,10,10,7,12,5,16,0.00,6,Rain,174
2012-9-5,80,74,69,73,70,68,100,92,70,30.05,30.00,29.96,10,9,2,12,5,,0.36,7,Rain-Thunderstorm,218
2012-9-6,78,71,64,72,68,64,100,94,69,30.10,30.05,29.98,10,9,0,7,4,,0.03,5,Fog-Rain-Thunderstorm,273
2012-9-7,84,73,62,72,66,63,100,83,58,30.10,30.04,29.94,10,8,0,9,2,,0.00,2,Fog,182
2012-9-8,71,60,50,70,63,50,100,96,78,30.01,29.91,29.85,10,9,0,17,9,25,0.47,5,Fog-Rain,245
2012-9-9,71,60,48,55,52,48,100,80,53,30.12,30.05,29.98,10,8,0,9,3,,0.00,4,Fog,286
2012-9-10,71,61,51,57,53,50,100,79,53,30.26,30.20,30.11,10,10,10,10,2,,0.00,1,,11
2012-9-11,77,64,50,55,52,46,94,67,44,30.35,30.30,30.25,10,10,10,12,1,17,0.00,1,,213
2012-9-12,78,66,55,61,57,54,100,74,44,30.43,30.37,30.33,10,10,10,8,4,,0.00,1,,182
2012-9-13,77,68,59,61,57,54,100,75,47,30.43,30.37,30.32,10,10,10,8,4,,0.00,1,,192
2012-9-14,78,68,57,61,58,54,94,74,51,30.35,30.31,30.28,10,10,10,8,4,,0.00,3,,255
2012-9-15,69,63,57,63,60,57,100,95,73,30.33,30.28,30.23,10,6,0,7,3,,0.00,4,Fog,20
2012-9-16,73,66,59,64,60,59,100,88,65,30.22,30.18,30.14,10,10,7,5,1,,0.00,7,Rain,333
2012-9-17,68,64,59,66,63,59,100,99,88,30.16,30.06,29.88,10,8,0,10,3,16,0.42,7,Fog-Rain,169
2012-9-18,64,60,53,64,62,54,100,100,100,30.03,29.84,29.74,10,8,2,13,6,18,1.01,8,Rain,260
2012-9-19,64,55,46,54,47,45,100,80,49,30.19,30.14,30.04,10,10,10,9,5,,0.00,2,,353
2012-9-20,71,60,48,61,54,45,100,80,56,30.19,30.14,30.10,10,10,5,17,5,24,0.00,2,,198
2012-9-21,73,64,55,61,57,52,100,79,50,30.15,30.09,30.02,10,10,7,13,8,20,0.01,2,,209
2012-9-22,73,64,55,61,53,43,88,68,47,30.14,30.05,30.01,10,10,10,18,11,26,0.00,3,,246
2012-9-23,62,52,41,45,39,36,87,63,39,30.25,30.20,30.15,10,10,10,10,3,,0.00,0,,334
2012-9-24,66,52,39,45,39,36,93,65,37,30.30,30.24,30.18,10,10,10,8,2,9,0.00,0,,160
2012-9-25,64,56,48,55,48,39,100,72,52,30.29,30.21,30.16,10,10,10,14,7,20,0.02,3,Rain-Thunderstorm,200
2012-9-26,77,68,59,61,57,54,88,73,54,30.28,30.23,30.19,10,10,10,15,9,21,0.00,0,,214
2012-9-27,73,65,57,66,60,54,100,84,65,30.29,30.25,30.21,10,10,3,12,6,,0.13,4,Rain,214
2012-9-28,68,64,59,64,62,59,100,97,88,30.21,30.16,30.09,10,9,1,12,3,17,0.13,6,Rain-Thunderstorm,244
2012-9-29,64,58,51,61,58,50,100,96,72,30.11,30.05,30.00,10,6,0,12,3,,0.09,6,Fog-Rain,351
2012-9-30,68,56,44,54,50,45,100,80,49,30.03,29.96,29.91,10,9,1,7,2,,0.00,0,,223